Time;durP1;ratioP1;P1;durP2;ratioP2;P2;SDS_P1;SDS_P2;PMS_P1;PMS_P2;Temp;Humidity;BMP_temperature;BMP_pressure;BME280_temperature;BME280_humidity;BME280_pressure;Samples;Min_cycle;Max_cycle;Signal;HPM_P1;HPM_P2
2021/05/27 00:00:49;;;;;;;2.00;1.20;;;16.80;54.30;;;;;;4988625;28;20273;-48
2021/05/27 00:03:14;;;;;;;1.20;1.10;;;16.70;54.50;;;;;;4983302;28;20191;-48
2021/05/27 00:05:40;;;;;;;1.70;1.40;;;16.60;54.80;;;;;;4986741;28;20226;-48
2021/05/27 00:08:06;;;;;;;1.83;1.10;;;16.60;54.90;;;;;;4987848;28;20759;-48
2021/05/27 00:10:32;;;;;;;1.20;1.10;;;16.70;55.10;;;;;;4987382;28;20481;-47
2021/05/27 00:12:59;;;;;;;1.20;1.10;;;16.70;54.80;;;;;;4989473;28;21144;-47
2021/05/27 00:15:26;;;;;;;0.90;0.90;;;16.90;55.00;;;;;;4990870;28;20442;-49
2021/05/27 00:17:53;;;;;;;1.37;1.23;;;16.80;54.70;;;;;;4985889;28;20476;-48
2021/05/27 00:20:19;;;;;;;1.77;1.23;;;17.00;54.60;;;;;;4991417;28;20961;-49
2021/05/27 00:22:45;;;;;;;1.30;1.00;;;17.10;54.20;;;;;;4990076;28;20526;-48
2021/05/27 00:25:12;;;;;;;1.10;1.00;;;17.10;53.70;;;;;;4991319;28;20517;-47
2021/05/27 00:27:38;;;;;;;2.07;1.40;;;17.20;53.80;;;;;;4979707;28;20496;-48
2021/05/27 00:30:05;;;;;;;1.07;1.03;;;17.20;53.50;;;;;;4984565;28;20450;-49
2021/05/27 00:32:31;;;;;;;1.13;1.10;;;17.20;53.50;;;;;;4988351;28;20442;-47
2021/05/27 00:34:57;;;;;;;1.27;1.20;;;17.20;53.40;;;;;;4990099;28;20466;-49
2021/05/27 00:37:23;;;;;;;2.03;1.20;;;17.20;53.50;;;;;;4987910;28;20569;-50
2021/05/27 00:39:48;;;;;;;5.00;1.20;;;17.20;53.50;;;;;;4985879;28;20241;-46
2021/05/27 00:42:14;;;;;;;3.00;1.20;;;17.40;53.50;;;;;;4989380;28;20221;-46
2021/05/27 00:44:41;;;;;;;1.70;1.60;;;17.50;53.50;;;;;;4990810;28;20194;-47
2021/05/27 00:47:08;;;;;;;1.90;1.27;;;17.50;53.10;;;;;;4987014;28;20796;-48
2021/05/27 00:49:34;;;;;;;1.40;1.30;;;17.50;53.00;;;;;;4985232;28;20452;-49
2021/05/27 00:52:00;;;;;;;2.90;1.20;;;17.60;53.00;;;;;;4988396;28;20441;-49
2021/05/27 00:54:26;;;;;;;1.10;1.00;;;17.30;53.00;;;;;;4987521;28;20922;-47
2021/05/27 00:56:52;;;;;;;1.60;1.07;;;17.30;53.20;;;;;;4988700;28;20191;-48
2021/05/27 00:59:19;;;;;;;3.80;1.10;;;17.40;53.50;;;;;;4985473;28;20277;-47
2021/05/27 01:01:49;;;;;;;1.30;0.97;;;17.60;53.60;;;;;;4989884;28;20517;-49
2021/05/27 01:04:15;;;;;;;1.57;1.10;;;17.70;53.30;;;;;;4989468;28;20449;-48
2021/05/27 01:06:41;;;;;;;1.30;1.20;;;17.90;53.10;;;;;;4985892;28;20482;-47
2021/05/27 01:09:06;;;;;;;2.40;1.50;;;18.00;52.80;;;;;;4985908;28;20281;-49
2021/05/27 01:11:32;;;;;;;1.20;1.10;;;18.10;52.60;;;;;;4984887;28;20274;-48
2021/05/27 01:14:09;;;;;;;1.40;1.30;;;18.20;52.30;;;;;;4990694;28;20654;-46
2021/05/27 01:16:35;;;;;;;1.80;1.17;;;18.30;52.20;;;;;;4989882;28;20266;-45
2021/05/27 01:19:00;;;;;;;1.37;1.27;;;18.30;51.90;;;;;;4988337;28;22515;-44
2021/05/27 01:21:30;;;;;;;1.70;1.20;;;18.10;51.60;;;;;;4987152;28;21014;-45
2021/05/27 01:23:56;;;;;;;1.73;1.33;;;17.90;52.00;;;;;;4990023;28;20197;-48
2021/05/27 01:26:21;;;;;;;1.30;1.20;;;17.70;52.30;;;;;;4991968;28;20981;-49
2021/05/27 01:28:47;;;;;;;2.20;1.10;;;17.60;52.70;;;;;;4988512;28;20217;-44
2021/05/27 01:31:13;;;;;;;1.70;1.50;;;17.40;52.80;;;;;;4987319;28;20194;-47
2021/05/27 01:33:38;;;;;;;1.60;1.30;;;17.30;53.10;;;;;;4986112;28;20273;-47
2021/05/27 01:36:05;;;;;;;1.73;1.37;;;17.10;53.40;;;;;;4989637;28;20321;-45
2021/05/27 01:38:31;;;;;;;2.27;1.20;;;17.00;53.50;;;;;;4989965;28;20292;-45
2021/05/27 01:41:01;;;;;;;1.90;1.13;;;16.90;53.80;;;;;;4987733;28;20457;-48
2021/05/27 01:43:27;;;;;;;0.90;0.90;;;16.90;54.10;;;;;;4989676;28;20456;-48
2021/05/27 01:45:53;;;;;;;1.37;1.10;;;16.80;54.20;;;;;;4990474;28;20560;-44
2021/05/27 01:48:19;;;;;;;1.70;1.60;;;16.80;54.40;;;;;;4987122;28;20194;-46
2021/05/27 01:50:46;;;;;;;1.30;1.20;;;16.70;54.30;;;;;;4985736;28;20523;-44
2021/05/27 01:53:13;;;;;;;2.10;1.50;;;16.60;54.50;;;;;;4985791;28;20457;-44
2021/05/27 01:55:41;;;;;;;1.33;1.20;;;16.50;54.90;;;;;;4987635;28;20446;-46
2021/05/27 01:58:07;;;;;;;1.30;1.20;;;16.50;55.10;;;;;;4984299;28;20442;-47
2021/05/27 02:00:33;;;;;;;2.40;1.43;;;16.40;55.20;;;;;;4985568;28;21000;-46
2021/05/27 02:02:59;;;;;;;1.37;1.23;;;16.50;55.40;;;;;;4984220;28;20442;-47
2021/05/27 02:05:24;;;;;;;1.20;1.10;;;16.40;55.80;;;;;;4989762;28;20661;-44
2021/05/27 02:07:50;;;;;;;1.33;1.23;;;16.40;55.20;;;;;;4989018;28;20603;-45
2021/05/27 02:10:16;;;;;;;1.43;1.33;;;16.40;55.40;;;;;;4985971;28;20265;-44
2021/05/27 02:12:42;;;;;;;2.30;1.40;;;16.30;55.50;;;;;;4990402;28;20294;-45
2021/05/27 02:15:09;;;;;;;1.47;1.37;;;16.30;55.60;;;;;;4990343;28;20537;-46
2021/05/27 02:17:35;;;;;;;2.10;1.47;;;16.20;55.70;;;;;;4993105;28;20682;-48
2021/05/27 02:20:00;;;;;;;1.53;1.43;;;16.20;55.70;;;;;;4990293;28;20448;-48
2021/05/27 02:22:26;;;;;;;1.87;1.30;;;16.30;55.70;;;;;;4989329;28;20572;-45
2021/05/27 02:24:52;;;;;;;1.50;1.33;;;16.20;55.70;;;;;;4986529;28;20275;-44
2021/05/27 02:27:18;;;;;;;1.77;1.40;;;16.30;55.90;;;;;;4993695;28;20234;-47
2021/05/27 02:29:43;;;;;;;2.33;1.70;;;16.20;56.00;;;;;;4983266;28;20217;-48
2021/05/27 02:32:09;;;;;;;2.63;1.60;;;16.20;56.40;;;;;;4991394;28;20222;-47
2021/05/27 02:34:35;;;;;;;2.40;1.20;;;16.20;56.60;;;;;;4994031;28;20226;-45
2021/05/27 02:37:00;;;;;;;2.17;1.23;;;16.10;56.80;;;;;;4992211;28;20285;-45
2021/05/27 02:39:26;;;;;;;1.47;1.37;;;16.10;56.90;;;;;;4989398;28;20194;-48
2021/05/27 02:41:52;;;;;;;1.40;1.30;;;16.10;57.30;;;;;;4988738;28;20261;-45
2021/05/27 02:44:18;;;;;;;1.40;1.30;;;16.10;57.50;;;;;;4991366;28;20229;-48
2021/05/27 02:46:43;;;;;;;1.80;1.70;;;16.10;57.40;;;;;;4989962;28;20224;-45
2021/05/27 02:49:09;;;;;;;1.53;1.37;;;16.00;57.20;;;;;;4989633;28;20445;-45
2021/05/27 02:51:35;;;;;;;2.00;1.60;;;16.10;57.10;;;;;;4987921;28;20222;-45
2021/05/27 02:54:00;;;;;;;1.17;1.07;;;16.00;57.10;;;;;;4989959;28;20273;-45
2021/05/27 02:56:26;;;;;;;1.50;1.40;;;16.00;57.30;;;;;;4987364;28;20553;-45
2021/05/27 02:58:52;;;;;;;1.80;1.60;;;16.00;57.40;;;;;;4990898;28;20194;-46
2021/05/27 03:01:18;;;;;;;1.50;1.40;;;16.00;57.50;;;;;;4986955;28;20838;-44
2021/05/27 03:03:44;;;;;;;1.47;1.20;;;16.00;57.80;;;;;;4989194;28;20284;-44
2021/05/27 03:06:10;;;;;;;2.33;1.80;;;15.90;58.00;;;;;;4990855;28;20477;-45
2021/05/27 03:08:41;;;;;;;4.87;1.80;;;15.90;58.10;;;;;;4986597;28;20453;-44
2021/05/27 03:11:07;;;;;;;1.60;1.50;;;15.80;58.60;;;;;;4989489;28;20202;-45
2021/05/27 03:13:33;;;;;;;1.60;1.50;;;15.80;58.00;;;;;;4987144;28;20458;-45
2021/05/27 03:16:00;;;;;;;3.47;1.23;;;15.90;58.00;;;;;;4986967;28;20457;-47
2021/05/27 03:18:27;;;;;;;1.47;1.37;;;15.80;58.20;;;;;;4989361;28;20442;-46
2021/05/27 03:20:52;;;;;;;2.00;1.37;;;15.80;57.40;;;;;;4991748;28;20450;-46
2021/05/27 03:23:18;;;;;;;2.03;1.47;;;15.80;57.60;;;;;;4985979;28;20472;-48
2021/05/27 03:25:44;;;;;;;1.77;1.67;;;15.80;57.50;;;;;;4989165;28;20202;-44
2021/05/27 03:28:09;;;;;;;1.67;1.47;;;15.80;57.60;;;;;;4988011;28;20186;-47
2021/05/27 03:30:35;;;;;;;1.90;1.60;;;15.80;57.50;;;;;;4990704;28;20277;-44
2021/05/27 03:33:01;;;;;;;1.50;1.40;;;15.70;57.50;;;;;;4985718;28;20979;-44
2021/05/27 03:35:26;;;;;;;1.90;1.10;;;15.70;57.40;;;;;;4988974;28;20581;-45
2021/05/27 03:37:52;;;;;;;1.40;1.30;;;15.70;57.30;;;;;;4989484;28;22193;-44
2021/05/27 03:40:17;;;;;;;2.10;1.50;;;15.80;57.20;;;;;;4992474;28;20263;-47
2021/05/27 03:42:47;;;;;;;2.10;1.53;;;15.70;57.10;;;;;;4991232;28;20206;-44
2021/05/27 03:45:23;;;;;;;1.70;1.60;;;15.60;57.10;;;;;;4983656;28;20191;-44
2021/05/27 03:47:49;;;;;;;1.37;1.27;;;15.60;57.20;;;;;;4988836;28;20532;-48
2021/05/27 03:50:17;;;;;;;1.50;1.40;;;15.50;57.10;;;;;;4991742;28;20469;-44
2021/05/27 03:52:43;;;;;;;1.50;1.40;;;15.50;57.30;;;;;;4983553;28;20449;-44
2021/05/27 03:55:11;;;;;;;1.53;1.43;;;15.40;57.40;;;;;;4982591;28;20468;-44
2021/05/27 03:57:37;;;;;;;2.20;1.43;;;15.30;57.40;;;;;;4990940;28;20202;-44
2021/05/27 04:02:53;;;;;;;1.97;1.57;;;15.30;57.50;;;;;;4988041;28;20829;-44
2021/05/27 04:08:05;;;;;;;2.80;1.67;;;15.30;57.80;;;;;;4988413;28;21015;-44
2021/05/27 04:10:31;;;;;;;1.57;1.47;;;15.20;57.70;;;;;;4988517;28;20452;-44
2021/05/27 04:12:57;;;;;;;1.47;1.37;;;15.00;58.10;;;;;;4983376;28;20445;-45
2021/05/27 04:15:27;;;;;;;2.20;1.80;;;15.10;58.20;;;;;;4989575;28;20533;-44
2021/05/27 04:18:00;;;;;;;2.07;1.50;;;15.10;58.10;;;;;;4986973;28;20500;-45
2021/05/27 04:20:28;;;;;;;2.10;1.63;;;15.20;58.10;;;;;;4999449;28;21016;-48
2021/05/27 04:22:54;;;;;;;1.80;1.70;;;15.20;58.00;;;;;;4990400;28;20822;-46
2021/05/27 04:25:21;;;;;;;2.40;1.63;;;15.00;58.00;;;;;;4988080;28;22710;-48
2021/05/27 04:27:47;;;;;;;1.93;1.73;;;15.10;58.30;;;;;;4988927;28;20473;-46
2021/05/27 04:30:16;;;;;;;2.33;1.60;;;15.20;58.20;;;;;;4990814;28;20442;-47
2021/05/27 04:35:28;;;;;;;1.73;1.63;;;15.30;58.10;;;;;;4990090;28;20464;-45
2021/05/27 04:37:56;;;;;;;1.37;1.27;;;15.20;58.10;;;;;;4985977;28;20473;-44
2021/05/27 04:40:21;;;;;;;1.80;1.70;;;15.20;58.30;;;;;;4989534;28;20450;-45
2021/05/27 04:42:47;;;;;;;1.70;1.60;;;15.30;58.30;;;;;;4990084;28;20452;-45
2021/05/27 04:45:13;;;;;;;1.70;1.60;;;15.30;58.10;;;;;;4990575;28;20713;-45
2021/05/27 04:47:39;;;;;;;1.40;1.30;;;15.40;58.00;;;;;;4983250;28;20222;-44
2021/05/27 04:50:07;;;;;;;1.73;1.50;;;15.50;57.90;;;;;;4984716;28;20463;-48
2021/05/27 04:52:33;;;;;;;1.50;1.40;;;15.50;57.90;;;;;;4989986;28;20226;-48
2021/05/27 04:54:59;;;;;;;1.73;1.50;;;15.60;57.80;;;;;;4988274;28;20829;-45
2021/05/27 04:57:24;;;;;;;1.50;1.40;;;15.50;57.60;;;;;;4990325;28;20194;-47
2021/05/27 04:59:50;;;;;;;1.60;1.50;;;15.60;57.60;;;;;;4986304;28;20770;-45
2021/05/27 05:02:15;;;;;;;1.40;1.27;;;15.60;57.70;;;;;;4989632;28;20680;-46
2021/05/27 05:04:41;;;;;;;1.83;1.67;;;15.70;57.80;;;;;;4987608;28;20197;-44
2021/05/27 05:07:07;;;;;;;1.80;1.60;;;15.70;57.70;;;;;;4988983;28;20230;-46
2021/05/27 05:09:32;;;;;;;3.20;1.50;;;15.80;57.60;;;;;;4985872;28;20219;-49
2021/05/27 05:11:58;;;;;;;1.47;1.33;;;15.80;57.40;;;;;;4990665;28;20203;-45
2021/05/27 05:14:23;;;;;;;10.03;1.40;;;15.90;57.40;;;;;;4987279;28;20209;-45
2021/05/27 05:16:49;;;;;;;2.10;0.93;;;15.80;58.90;;;;;;4983178;28;20187;-49
2021/05/27 05:19:15;;;;;;;1.40;1.30;;;16.00;58.40;;;;;;4988830;28;20195;-44
2021/05/27 05:21:41;;;;;;;2.70;1.20;;;16.50;57.10;;;;;;4985100;28;20325;-47
2021/05/27 05:24:07;;;;;;;1.37;1.27;;;16.80;56.10;;;;;;4985956;28;20445;-45
2021/05/27 05:26:33;;;;;;;1.50;1.40;;;17.10;55.60;;;;;;4991128;28;20232;-45
2021/05/27 05:28:59;;;;;;;1.97;1.00;;;17.30;54.60;;;;;;4989551;28;20453;-47
2021/05/27 05:31:24;;;;;;;2.07;1.60;;;17.60;54.10;;;;;;4986822;28;20195;-46
2021/05/27 05:33:54;;;;;;;2.60;1.50;;;17.80;53.10;;;;;;4985729;28;20263;-45
2021/05/27 05:36:20;;;;;;;1.73;1.10;;;17.90;52.60;;;;;;4991390;28;21024;-45
2021/05/27 05:38:46;;;;;;;1.43;1.20;;;18.10;52.20;;;;;;4986489;28;20527;-45
2021/05/27 05:41:12;;;;;;;1.60;1.43;;;18.20;52.10;;;;;;4987271;28;20842;-46
2021/05/27 05:43:37;;;;;;;1.80;1.50;;;18.30;51.60;;;;;;4988199;28;20202;-45
2021/05/27 05:46:03;;;;;;;1.53;1.43;;;18.30;51.50;;;;;;4990704;28;20229;-45
2021/05/27 05:48:28;;;;;;;2.50;1.63;;;18.40;51.70;;;;;;4990003;28;20198;-45
2021/05/27 05:50:57;;;;;;;1.70;1.60;;;18.50;51.90;;;;;;4990667;28;20195;-45
2021/05/27 05:53:23;;;;;;;2.40;1.40;;;18.60;52.00;;;;;;4994104;28;20218;-45
2021/05/27 05:55:52;;;;;;;2.33;1.40;;;18.70;52.00;;;;;;4992489;28;20433;-44
2021/05/27 05:58:18;;;;;;;2.30;1.90;;;18.70;52.10;;;;;;4993311;28;20472;-47
2021/05/27 06:00:44;;;;;;;3.67;1.60;;;18.70;52.20;;;;;;4994580;28;20461;-45
2021/05/27 06:03:10;;;;;;;1.70;1.60;;;18.70;52.10;;;;;;4991661;28;20241;-46
2021/05/27 06:05:36;;;;;;;4.30;1.93;;;18.80;52.20;;;;;;4990860;28;20469;-46
2021/05/27 06:08:02;;;;;;;2.40;1.30;;;18.80;52.00;;;;;;4994246;28;20241;-45
2021/05/27 06:10:28;;;;;;;1.97;1.63;;;18.90;51.90;;;;;;4993130;28;20183;-45
2021/05/27 06:12:56;;;;;;;2.20;1.83;;;18.90;51.70;;;;;;4992906;28;20827;-47
2021/05/27 06:15:22;;;;;;;1.50;1.40;;;19.00;51.50;;;;;;4994069;28;20187;-46
2021/05/27 06:17:49;;;;;;;2.10;1.53;;;19.10;51.30;;;;;;4993939;28;20813;-45
2021/05/27 06:20:16;;;;;;;2.77;1.40;;;19.10;51.10;;;;;;4994371;28;20441;-47
2021/05/27 06:22:42;;;;;;;2.90;1.80;;;19.10;50.70;;;;;;4991798;28;20933;-46
2021/05/27 06:25:09;;;;;;;1.83;1.50;;;19.30;50.40;;;;;;4991025;28;20945;-45
2021/05/27 06:27:34;;;;;;;3.70;1.93;;;19.30;50.20;;;;;;4994345;28;20481;-45
2021/05/27 06:30:00;;;;;;;1.70;1.60;;;19.40;49.80;;;;;;4989944;28;20449;-46
2021/05/27 06:32:25;;;;;;;2.60;2.00;;;19.40;49.90;;;;;;4991437;28;20429;-45
2021/05/27 06:34:54;;;;;;;2.40;1.70;;;19.50;49.40;;;;;;4992324;28;20187;-46
2021/05/27 06:37:20;;;;;;;2.40;1.60;;;19.50;49.00;;;;;;4991878;28;20246;-46
2021/05/27 06:39:46;;;;;;;2.80;1.83;;;19.30;49.10;;;;;;4992408;28;20433;-47
2021/05/27 06:42:13;;;;;;;1.70;1.60;;;19.40;49.30;;;;;;4993384;28;20194;-49
2021/05/27 06:44:39;;;;;;;2.30;1.70;;;19.50;48.80;;;;;;4993448;28;20202;-45
2021/05/27 06:47:05;;;;;;;2.50;1.30;;;19.60;49.00;;;;;;4987500;28;20544;-49
2021/05/27 06:49:30;;;;;;;2.10;1.60;;;19.30;49.20;;;;;;4993342;28;20195;-48
2021/05/27 06:51:57;;;;;;;2.40;1.50;;;19.50;48.80;;;;;;4988934;28;20207;-45
2021/05/27 06:54:23;;;;;;;2.07;1.93;;;19.80;48.70;;;;;;4995050;28;20237;-47
2021/05/27 06:56:50;;;;;;;1.90;1.40;;;19.80;48.20;;;;;;4993602;28;21054;-46
2021/05/27 06:59:16;;;;;;;1.80;1.70;;;19.90;48.60;;;;;;4992982;28;20433;-46
2021/05/27 07:01:41;;;;;;;1.67;1.57;;;20.00;48.50;;;;;;4992837;28;20460;-45
2021/05/27 07:04:07;;;;;;;2.90;1.83;;;20.20;48.80;;;;;;4991910;28;20643;-45
2021/05/27 07:06:33;;;;;;;2.53;1.83;;;20.20;48.40;;;;;;4993133;28;20225;-45
2021/05/27 07:08:58;;;;;;;2.33;1.70;;;20.40;47.40;;;;;;4992686;28;20203;-45
2021/05/27 07:11:24;;;;;;;1.30;1.20;;;20.10;46.80;;;;;;4992980;28;20206;-45
2021/05/27 07:13:49;;;;;;;1.40;1.30;;;19.90;46.30;;;;;;4993498;28;20198;-45
2021/05/27 07:16:15;;;;;;;1.40;1.30;;;19.80;46.20;;;;;;4993432;28;20225;-46
2021/05/27 07:18:41;;;;;;;2.70;1.30;;;19.60;45.70;;;;;;4993163;28;20241;-45
2021/05/27 07:21:06;;;;;;;2.13;1.30;;;19.30;45.50;;;;;;4992607;28;20551;-45
2021/05/27 07:23:32;;;;;;;3.80;1.50;;;19.00;45.20;;;;;;4991689;28;20238;-45
2021/05/27 07:26:00;;;;;;;6.50;1.30;;;19.00;46.00;;;;;;4998253;28;20647;-45
2021/05/27 07:28:26;;;;;;;1.83;1.30;;;18.80;45.50;;;;;;4993425;28;20191;-45
2021/05/27 07:30:51;;;;;;;1.40;1.30;;;18.80;46.10;;;;;;4991312;28;20445;-48
2021/05/27 07:33:19;;;;;;;2.67;1.90;;;18.80;46.50;;;;;;4988625;28;20566;-49
2021/05/27 07:35:44;;;;;;;2.00;1.30;;;18.70;45.70;;;;;;4993507;28;20210;-49
2021/05/27 07:38:11;;;;;;;1.67;1.57;;;18.80;46.40;;;;;;4992693;28;20481;-48
2021/05/27 07:40:37;;;;;;;2.30;1.40;;;19.00;46.40;;;;;;4992678;28;20199;-48
2021/05/27 07:43:03;;;;;;;1.43;1.33;;;19.20;46.70;;;;;;4990458;28;20872;-48
2021/05/27 07:45:29;;;;;;;1.93;1.40;;;19.10;46.70;;;;;;4991122;28;20573;-48
2021/05/27 07:47:55;;;;;;;3.73;1.40;;;18.60;45.90;;;;;;4989110;28;20720;-48
2021/05/27 07:50:21;;;;;;;2.70;1.60;;;18.60;46.10;;;;;;4992479;28;20457;-49
2021/05/27 07:52:48;;;;;;;3.03;1.50;;;18.80;46.70;;;;;;4991733;28;20433;-49
2021/05/27 07:55:14;;;;;;;3.13;1.23;;;19.00;47.00;;;;;;4991096;28;20194;-46
2021/05/27 07:57:39;;;;;;;3.17;1.53;;;19.30;46.90;;;;;;4991124;28;20438;-46
2021/05/27 08:00:06;;;;;;;1.40;1.30;;;19.60;45.10;;;;;;4991366;28;20448;-49
2021/05/27 08:02:32;;;;;;;1.47;1.37;;;19.80;44.50;;;;;;4991078;28;20195;-46
2021/05/27 08:04:58;;;;;;;4.00;1.50;;;19.60;44.30;;;;;;4991406;28;20453;-48
2021/05/27 08:07:23;;;;;;;1.67;1.40;;;19.40;45.00;;;;;;4986810;28;20225;-47
2021/05/27 08:09:49;;;;;;;3.43;1.37;;;19.30;44.90;;;;;;4983494;28;20255;-45
2021/05/27 08:12:15;;;;;;;2.40;1.33;;;19.20;45.10;;;;;;4988232;28;20241;-48
2021/05/27 08:14:40;;;;;;;1.77;1.40;;;19.50;44.50;;;;;;4988295;28;20222;-44
2021/05/27 08:17:06;;;;;;;6.47;1.80;;;19.30;43.00;;;;;;4988302;28;20187;-47
2021/05/27 08:19:32;;;;;;;5.73;1.70;;;19.50;44.40;;;;;;4979902;28;20190;-45
2021/05/27 08:21:57;;;;;;;3.03;1.30;;;19.80;43.50;;;;;;4987135;28;20670;-49
2021/05/27 08:24:23;;;;;;;3.83;1.70;;;20.10;43.10;;;;;;4988287;28;20465;-45
2021/05/27 08:26:49;;;;;;;1.73;1.63;;;20.00;42.90;;;;;;4988578;28;20242;-45
2021/05/27 08:29:15;;;;;;;1.67;1.57;;;20.30;43.30;;;;;;4991118;28;20576;-45
2021/05/27 08:31:41;;;;;;;1.73;1.60;;;20.00;41.70;;;;;;4990774;28;20213;-48
2021/05/27 08:34:08;;;;;;;3.63;1.80;;;19.90;42.90;;;;;;4990208;28;20663;-49
2021/05/27 08:36:34;;;;;;;1.53;1.43;;;20.00;42.30;;;;;;4985033;28;20438;-49
2021/05/27 08:39:00;;;;;;;2.03;1.77;;;20.00;41.50;;;;;;4989322;28;20484;-49
2021/05/27 08:41:26;;;;;;;2.10;1.57;;;20.00;42.10;;;;;;4989911;28;20939;-48
2021/05/27 08:43:52;;;;;;;4.60;1.47;;;20.30;41.60;;;;;;4989626;28;20678;-49
2021/05/27 08:46:22;;;;;;;2.40;1.57;;;20.00;41.90;;;;;;4990341;28;20474;-49
2021/05/27 08:48:48;;;;;;;1.50;1.40;;;20.10;42.40;;;;;;4990536;28;20809;-48
2021/05/27 08:51:14;;;;;;;4.00;1.57;;;20.10;41.00;;;;;;4989567;28;20452;-49
2021/05/27 08:53:40;;;;;;;1.70;1.60;;;20.50;41.00;;;;;;4988410;28;20202;-49
2021/05/27 08:56:05;;;;;;;1.70;1.30;;;20.50;40.90;;;;;;4989348;28;20437;-48
2021/05/27 08:58:31;;;;;;;1.23;1.13;;;20.30;40.80;;;;;;4989456;28;20191;-46
2021/05/27 09:00:57;;;;;;;4.03;1.43;;;20.40;40.60;;;;;;4988178;28;20434;-49
2021/05/27 09:03:23;;;;;;;2.70;1.60;;;20.40;40.20;;;;;;4987397;28;20564;-49
2021/05/27 09:06:03;;;;;;;2.00;1.50;;;20.40;39.90;;;;;;4989878;28;20854;-48
2021/05/27 09:08:31;;;;;;;1.57;1.33;;;20.50;40.30;;;;;;4989781;28;20489;-46
2021/05/27 09:11:03;;;;;;;2.77;1.57;;;20.60;40.50;;;;;;4990376;28;20636;-47
2021/05/27 09:13:29;;;;;;;1.60;1.20;;;20.60;39.60;;;;;;4990514;28;21003;-47
2021/05/27 09:16:06;;;;;;;2.03;1.50;;;20.30;39.00;;;;;;4990927;28;20438;-48
2021/05/27 09:18:35;;;;;;;4.60;1.50;;;20.20;39.40;;;;;;4986769;28;20618;-47
2021/05/27 09:21:02;;;;;;;2.63;1.73;;;20.30;39.70;;;;;;4989159;28;20437;-48
2021/05/27 09:23:28;;;;;;;1.70;1.40;;;20.40;39.40;;;;;;4987963;28;20434;-48
2021/05/27 09:26:03;;;;;;;2.57;1.37;;;20.40;40.00;;;;;;4990213;28;20557;-45
2021/05/27 09:28:29;;;;;;;1.40;1.30;;;20.30;40.00;;;;;;4990395;28;20604;-49
2021/05/27 09:30:57;;;;;;;3.10;1.70;;;20.40;39.70;;;;;;4992332;28;20462;-47
2021/05/27 09:33:56;;;;;;;4.47;1.37;;;20.70;40.00;;;;;;4993935;28;20190;-47
2021/05/27 09:36:23;;;;;;;1.40;1.20;;;20.80;39.70;;;;;;4982156;28;21048;-46
2021/05/27 09:39:00;;;;;;;1.97;1.70;;;20.70;38.90;;;;;;4988942;28;20497;-48
2021/05/27 09:41:31;;;;;;;2.27;1.70;;;20.80;39.70;;;;;;4993783;28;20439;-48
2021/05/27 09:44:05;;;;;;;2.90;1.20;;;20.70;40.20;;;;;;4993354;28;20445;-45
2021/05/27 09:46:52;;;;;;;1.37;1.27;;;20.70;40.70;;;;;;4993554;28;20520;-45
2021/05/27 09:49:28;;;;;;;2.40;1.20;;;20.70;40.70;;;;;;4987991;28;20434;-46
2021/05/27 09:51:56;;;;;;;1.60;1.50;;;20.90;40.90;;;;;;4993316;28;20457;-49
2021/05/27 09:54:22;;;;;;;1.67;1.50;;;20.90;40.20;;;;;;4994244;28;20520;-49
2021/05/27 09:56:49;;;;;;;2.23;1.47;;;20.80;40.60;;;;;;4990171;28;20438;-48
2021/05/27 09:59:16;;;;;;;2.77;1.57;;;20.70;41.00;;;;;;4987358;28;20437;-48
2021/05/27 10:02:17;;;;;;;2.63;1.67;;;20.60;40.60;;;;;;4993834;28;20552;-45
2021/05/27 10:04:57;;;;;;;1.47;1.37;;;20.70;40.00;;;;;;4991700;28;20445;-48
2021/05/27 10:07:36;;;;;;;3.13;1.80;;;20.40;39.80;;;;;;4994699;28;20542;-45
2021/05/27 10:10:04;;;;;;;1.80;1.30;;;20.50;39.30;;;;;;4992837;28;21007;-47
2021/05/27 10:12:38;;;;;;;1.77;1.20;;;20.60;39.30;;;;;;4991268;28;20433;-44
2021/05/27 10:15:06;;;;;;;4.00;1.60;;;20.50;39.40;;;;;;4993580;28;20449;-45
2021/05/27 10:17:32;;;;;;;2.03;1.20;;;20.50;39.50;;;;;;4984724;28;20964;-45
2021/05/27 10:19:58;;;;;;;2.10;1.17;;;20.50;39.60;;;;;;4994187;28;20438;-44
2021/05/27 10:22:24;;;;;;;1.50;1.40;;;20.20;40.40;;;;;;4993791;28;20541;-47
2021/05/27 10:24:50;;;;;;;3.53;1.63;;;20.00;40.80;;;;;;4993935;28;20198;-48
2021/05/27 10:27:15;;;;;;;3.40;1.50;;;20.20;40.90;;;;;;4994218;28;20226;-44
2021/05/27 10:29:42;;;;;;;3.00;1.60;;;20.30;41.40;;;;;;4991273;28;20198;-44
2021/05/27 10:32:09;;;;;;;2.13;2.03;;;20.30;41.50;;;;;;4993700;28;20223;-49
2021/05/27 10:34:41;;;;;;;3.60;1.70;;;20.30;41.40;;;;;;4991466;28;20430;-46
2021/05/27 10:37:07;;;;;;;3.17;1.60;;;20.30;41.40;;;;;;4991540;28;20488;-48
2021/05/27 10:39:33;;;;;;;2.13;1.40;;;20.30;41.70;;;;;;4984970;28;20950;-44
2021/05/27 10:41:59;;;;;;;3.03;1.73;;;20.20;41.90;;;;;;4990907;28;20903;-48
2021/05/27 10:44:25;;;;;;;3.53;1.67;;;20.10;42.00;;;;;;4991488;28;20195;-49
2021/05/27 10:46:53;;;;;;;1.93;1.73;;;19.90;42.60;;;;;;4990815;28;21257;-48
2021/05/27 10:49:41;;;;;;;3.93;1.77;;;19.70;43.30;;;;;;4993259;28;20434;-49
2021/05/27 10:52:30;;;;;;;2.17;1.63;;;19.80;43.50;;;;;;4993293;28;20449;-47
2021/05/27 10:54:55;;;;;;;2.37;1.63;;;19.80;43.50;;;;;;4983667;28;20442;-46
2021/05/27 10:57:39;;;;;;;1.80;1.70;;;20.00;43.40;;;;;;4992776;28;20454;-45
2021/05/27 11:00:31;;;;;;;2.03;1.73;;;19.80;42.60;;;;;;4992800;28;20195;-48
2021/05/27 11:03:16;;;;;;;3.37;1.90;;;19.80;43.20;;;;;;4987711;28;20433;-46
2021/05/27 11:06:02;;;;;;;4.47;1.87;;;19.90;43.00;;;;;;4984515;28;20470;-46
2021/05/27 11:08:27;;;;;;;1.70;1.60;;;20.00;42.10;;;;;;4993099;28;20504;-47
2021/05/27 11:10:53;;;;;;;1.93;1.80;;;20.00;42.80;;;;;;4992691;28;20442;-47
2021/05/27 11:13:18;;;;;;;1.93;1.60;;;20.00;43.00;;;;;;4983796;28;20226;-44
2021/05/27 11:16:04;;;;;;;4.83;1.73;;;20.20;43.30;;;;;;4987795;28;20197;-48
2021/05/27 11:18:34;;;;;;;2.63;1.77;;;20.50;43.40;;;;;;4992882;28;20205;-48
2021/05/27 11:21:32;;;;;;;5.37;1.93;;;20.60;42.80;;;;;;4992173;28;20448;-45
2021/05/27 11:27:34;;;;;;;1.83;1.53;;;20.90;41.80;;;;;;4981263;28;20497;-44
2021/05/27 11:30:17;;;;;;;2.57;1.70;;;20.70;41.30;;;;;;4931973;29;20858;-44
2021/05/27 11:32:43;;;;;;;1.40;1.30;;;20.50;41.60;;;;;;4931272;29;21268;-45
2021/05/27 11:35:09;;;;;;;1.90;1.50;;;20.20;41.10;;;;;;4967268;28;20473;-46
2021/05/27 11:37:36;;;;;;;2.17;1.70;;;20.20;42.00;;;;;;4992714;28;20505;-48
2021/05/27 11:40:03;;;;;;;2.00;1.57;;;20.30;42.00;;;;;;4990342;28;20446;-48
2021/05/27 11:42:29;;;;;;;4.50;2.17;;;20.30;41.50;;;;;;4983446;28;20529;-44
2021/05/27 11:45:00;;;;;;;1.97;1.73;;;20.40;41.90;;;;;;4984211;28;20449;-45
2021/05/27 11:47:29;;;;;;;3.10;1.80;;;20.60;41.80;;;;;;4988709;28;20575;-47
2021/05/27 11:50:10;;;;;;;5.60;1.90;;;20.70;41.70;;;;;;4985172;28;20446;-48
2021/05/27 11:52:36;;;;;;;1.33;1.23;;;20.80;40.70;;;;;;4983696;28;20442;-45
2021/05/27 11:55:04;;;;;;;1.70;1.60;;;20.90;41.30;;;;;;4988974;28;20786;-47
2021/05/27 11:57:44;;;;;;;1.40;1.30;;;20.90;41.00;;;;;;4991490;28;20588;-44
2021/05/27 12:00:12;;;;;;;2.10;1.33;;;20.90;41.60;;;;;;4985275;28;20523;-47
2021/05/27 12:02:47;;;;;;;4.07;1.30;;;20.90;40.90;;;;;;4985019;28;20445;-45
2021/05/27 12:05:26;;;;;;;4.10;1.50;;;21.00;40.60;;;;;;4985728;28;20476;-44
2021/05/27 12:08:03;;;;;;;2.03;1.50;;;20.90;41.10;;;;;;4986365;28;20489;-44
2021/05/27 12:10:37;;;;;;;4.67;1.60;;;20.80;41.10;;;;;;4987617;28;20450;-44
2021/05/27 12:13:14;;;;;;;4.67;1.70;;;21.00;41.30;;;;;;4989657;28;20649;-44
2021/05/27 12:15:42;;;;;;;2.13;1.30;;;21.10;40.30;;;;;;4990074;28;20473;-48
2021/05/27 12:18:14;;;;;;;1.77;1.30;;;20.80;39.70;;;;;;4989823;28;20940;-46
2021/05/27 12:20:42;;;;;;;3.33;1.20;;;20.70;40.70;;;;;;4989202;28;20859;-47
2021/05/27 12:23:10;;;;;;;2.57;1.50;;;20.60;41.20;;;;;;4988554;28;20474;-48
2021/05/27 12:25:42;;;;;;;3.27;1.47;;;20.90;41.00;;;;;;4994039;28;20454;-46
2021/05/27 12:28:37;;;;;;;2.30;1.30;;;21.00;41.00;;;;;;4990545;28;20961;-45
2021/05/27 12:31:03;;;;;;;5.60;1.80;;;21.20;40.70;;;;;;4978770;28;20516;-46
2021/05/27 12:33:32;;;;;;;1.80;1.20;;;21.20;39.60;;;;;;4991891;28;20937;-47
2021/05/27 12:36:04;;;;;;;5.37;1.50;;;20.90;38.80;;;;;;4998565;28;20190;-45
2021/05/27 12:38:29;;;;;;;3.57;2.33;;;21.00;39.60;;;;;;4993204;28;20804;-46
2021/05/27 12:40:56;;;;;;;2.83;1.33;;;21.00;40.10;;;;;;4991438;28;20532;-46
2021/05/27 12:43:26;;;;;;;2.43;1.17;;;21.20;40.60;;;;;;4991676;28;20193;-46
2021/05/27 12:45:54;;;;;;;4.23;1.10;;;21.40;39.90;;;;;;4992362;28;20449;-46
2021/05/27 12:48:22;;;;;;;1.40;1.30;;;21.60;39.20;;;;;;4991157;28;20984;-46
2021/05/27 12:51:04;;;;;;;1.40;1.30;;;21.70;38.70;;;;;;4991302;28;20466;-45
2021/05/27 12:53:40;;;;;;;2.20;1.20;;;21.80;38.70;;;;;;4991301;28;20433;-46
2021/05/27 12:56:29;;;;;;;2.60;1.50;;;22.00;38.80;;;;;;4989432;28;20592;-46
2021/05/27 12:59:06;;;;;;;1.80;1.27;;;22.00;38.90;;;;;;4991153;28;20478;-46
2021/05/27 13:01:44;;;;;;;6.03;1.70;;;22.00;39.00;;;;;;4990220;28;20430;-45
2021/05/27 13:04:23;;;;;;;1.50;1.23;;;22.00;39.00;;;;;;4989278;28;20540;-46